TimeEDT,TemperatureF,Dew PointF,Humidity,Sea Level PressureIn,VisibilityMPH,Wind Direction,Wind SpeedMPH,Gust SpeedMPH,PrecipitationIn,Events,Conditions,WindDirDegrees,DateUTC
12:15 AM,73.4,71.6,94,30.08,10.0,South,5.8,-,N/A,,Clear,170,2013-09-12 04:15:00
12:35 AM,73.4,71.6,94,30.07,10.0,South,4.6,-,N/A,,Clear,180,2013-09-12 04:35:00
12:55 AM,73.4,71.6,94,30.07,10.0,South,5.8,-,N/A,,Clear,170,2013-09-12 04:55:00
1:15 AM,73.4,71.6,94,30.06,10.0,South,5.8,-,N/A,,Clear,170,2013-09-12 05:15:00
1:35 AM,73.4,71.6,94,30.05,10.0,South,5.8,-,N/A,,Clear,170,2013-09-12 05:35:00
1:55 AM,73.4,71.6,94,30.05,10.0,South,6.9,-,N/A,,Clear,180,2013-09-12 05:55:00
2:15 AM,73.4,71.6,94,30.04,10.0,South,6.9,-,N/A,,Clear,180,2013-09-12 06:15:00
2:35 AM,71.6,71.6,100,30.04,10.0,South,5.8,-,N/A,,Clear,190,2013-09-12 06:35:00
2:55 AM,71.6,71.6,100,30.04,10.0,South,4.6,-,N/A,,Clear,180,2013-09-12 06:55:00
3:15 AM,71.6,71.6,100,30.03,10.0,South,3.5,-,N/A,,Clear,180,2013-09-12 07:15:00
3:35 AM,71.6,71.6,100,30.03,10.0,Calm,Calm,-,N/A,,Clear,0,2013-09-12 07:35:00
3:55 AM,71.6,71.6,100,30.03,10.0,South,4.6,-,N/A,,Clear,170,2013-09-12 07:55:00
4:15 AM,71.6,71.6,100,30.02,10.0,Calm,Calm,-,N/A,,Clear,0,2013-09-12 08:15:00
4:35 AM,71.6,71.6,100,30.02,10.0,SSE,4.6,-,N/A,,Clear,160,2013-09-12 08:35:00
4:55 AM,71.6,71.6,100,30.02,10.0,SSE,3.5,-,N/A,,Clear,160,2013-09-12 08:55:00
5:15 AM,71.6,71.6,100,30.02,10.0,SSE,3.5,-,N/A,,Clear,160,2013-09-12 09:15:00
5:35 AM,71.6,71.6,100,30.02,10.0,South,3.5,-,N/A,,Clear,170,2013-09-12 09:35:00
5:55 AM,69.8,69.8,100,30.02,10.0,Calm,Calm,-,N/A,,Clear,0,2013-09-12 09:55:00
6:15 AM,69.8,69.8,100,30.02,10.0,South,3.5,-,N/A,,Clear,170,2013-09-12 10:15:00
6:35 AM,69.8,69.8,100,30.02,10.0,South,3.5,-,N/A,,Clear,170,2013-09-12 10:35:00
6:55 AM,69.8,69.8,100,30.02,10.0,Calm,Calm,-,N/A,,Clear,0,2013-09-12 10:55:00
7:15 AM,71.6,71.6,100,30.02,10.0,South,3.5,-,N/A,,Clear,170,2013-09-12 11:15:00
7:35 AM,71.6,71.6,100,30.02,10.0,SSE,4.6,-,N/A,,Clear,160,2013-09-12 11:35:00
7:55 AM,71.6,71.6,100,30.01,10.0,Calm,Calm,-,N/A,,Clear,0,2013-09-12 11:55:00
8:15 AM,73.4,71.6,94,30.00,10.0,SSW,4.6,-,N/A,,Clear,210,2013-09-12 12:15:00
8:35 AM,75.2,71.6,89,30.00,10.0,South,5.8,-,N/A,,Clear,180,2013-09-12 12:35:00
8:55 AM,77.0,71.6,83,30.00,10.0,SW,6.9,-,N/A,,Clear,220,2013-09-12 12:55:00
9:15 AM,78.8,71.6,78,30.00,10.0,SSW,6.9,-,N/A,,Clear,200,2013-09-12 13:15:00
9:35 AM,80.6,69.8,70,29.99,10.0,WSW,8.1,-,N/A,,Clear,240,2013-09-12 13:35:00
9:55 AM,80.6,69.8,70,29.99,10.0,WSW,5.8,-,N/A,,Clear,240,2013-09-12 13:55:00
10:15 AM,82.4,69.8,66,29.98,10.0,West,4.6,-,N/A,,Clear,260,2013-09-12 14:15:00
10:35 AM,84.2,69.8,62,29.97,10.0,SSW,9.2,-,N/A,,Clear,200,2013-09-12 14:35:00
10:55 AM,86.0,69.8,58,29.97,10.0,SSW,4.6,-,N/A,,Clear,210,2013-09-12 14:55:00
11:15 AM,86.0,69.8,58,29.97,10.0,WSW,9.2,-,N/A,,Clear,240,2013-09-12 15:15:00
11:35 AM,87.8,69.8,55,29.96,10.0,WSW,6.9,-,N/A,,Clear,240,2013-09-12 15:35:00
11:55 AM,87.8,68.0,52,29.95,10.0,SW,6.9,-,N/A,,Clear,230,2013-09-12 15:55:00
12:15 PM,89.6,69.8,52,29.94,10.0,SSW,6.9,-,N/A,,Clear,210,2013-09-12 16:15:00
12:35 PM,89.6,69.8,52,29.94,10.0,SW,9.2,-,N/A,,Clear,230,2013-09-12 16:35:00
12:55 PM,89.6,69.8,52,29.93,10.0,SSW,9.2,-,N/A,,Clear,210,2013-09-12 16:55:00
1:15 PM,91.4,69.8,49,29.92,10.0,SSW,8.1,17.3,N/A,,Clear,210,2013-09-12 17:15:00
1:35 PM,91.4,69.8,49,29.91,10.0,SW,8.1,-,N/A,,Scattered Clouds,220,2013-09-12 17:35:00
1:55 PM,91.4,69.8,49,29.90,10.0,SSW,10.4,18.4,N/A,,Clear,210,2013-09-12 17:55:00
2:15 PM,91.4,69.8,49,29.89,10.0,SSW,9.2,-,N/A,,Scattered Clouds,200,2013-09-12 18:15:00
2:55 PM,91.4,69.8,49,29.86,-9999.0,North,-9999.0,-,N/A,,Unknown,0,2013-09-12 18:55:00
3:15 PM,91.4,69.8,49,29.85,10.0,WSW,8.1,16.1,N/A,,Unknown,250,2013-09-12 19:15:00
3:35 PM,91.4,69.8,49,29.84,10.0,SW,11.5,16.1,N/A,,Scattered Clouds,220,2013-09-12 19:35:00
3:55 PM,91.4,71.6,52,29.83,10.0,SW,8.1,-,N/A,,Scattered Clouds,230,2013-09-12 19:55:00
4:15 PM,91.4,69.8,49,29.82,10.0,WSW,9.2,-,N/A,,Scattered Clouds,240,2013-09-12 20:15:00
4:35 PM,91.4,69.8,49,29.81,10.0,SW,9.2,-,N/A,,Scattered Clouds,220,2013-09-12 20:35:00
4:55 PM,89.6,69.8,52,29.80,10.0,SW,9.2,16.1,N/A,,Clear,220,2013-09-12 20:55:00
5:15 PM,89.6,69.8,52,29.79,10.0,SSW,8.1,-,N/A,,Scattered Clouds,210,2013-09-12 21:15:00
5:35 PM,89.6,69.8,52,29.79,10.0,SSW,6.9,16.1,N/A,,Clear,210,2013-09-12 21:35:00
5:55 PM,89.6,69.8,52,29.79,10.0,SSW,10.4,-,N/A,,Clear,210,2013-09-12 21:55:00
6:15 PM,87.8,69.8,55,29.79,10.0,SSW,6.9,-,N/A,,Clear,200,2013-09-12 22:15:00
6:35 PM,87.8,71.6,58,29.80,10.0,SSW,4.6,-,N/A,,Clear,210,2013-09-12 22:35:00
6:55 PM,86.0,69.8,58,29.80,10.0,SW,8.1,-,N/A,,Scattered Clouds,220,2013-09-12 22:55:00
7:15 PM,84.2,69.8,62,29.80,10.0,SSW,8.1,-,N/A,,Scattered Clouds,200,2013-09-12 23:15:00
7:35 PM,84.2,69.8,62,29.79,10.0,SSW,5.8,-,N/A,,Scattered Clouds,200,2013-09-12 23:35:00
7:55 PM,82.4,69.8,66,29.79,10.0,SSW,5.8,-,N/A,,Clear,200,2013-09-12 23:55:00
8:15 PM,82.4,69.8,66,29.79,10.0,South,5.8,-,N/A,,Scattered Clouds,190,2013-09-13 00:15:00
8:35 PM,82.4,71.6,70,29.79,10.0,South,5.8,-,N/A,,Scattered Clouds,180,2013-09-13 00:35:00
8:55 PM,80.6,71.6,74,29.79,10.0,South,4.6,-,N/A,,Scattered Clouds,170,2013-09-13 00:55:00
9:15 PM,80.6,71.6,74,29.82,1.8,West,17.3,29.9,N/A,,Overcast,270,2013-09-13 01:15:00
9:35 PM,71.6,68.0,88,29.81,10.0,South,6.9,-,N/A,,Overcast,180,2013-09-13 01:35:00
9:55 PM,73.4,69.8,88,29.81,10.0,SSW,6.9,-,N/A,,Mostly Cloudy,210,2013-09-13 01:55:00
10:15 PM,75.2,73.4,94,29.80,10.0,SSW,6.9,-,N/A,,Clear,210,2013-09-13 02:15:00
10:35 PM,75.2,71.6,89,29.79,10.0,South,4.6,-,N/A,,Clear,190,2013-09-13 02:35:00
10:55 PM,75.2,71.6,89,29.78,10.0,South,3.5,-,N/A,,Clear,190,2013-09-13 02:55:00
11:15 PM,73.4,71.6,94,29.78,10.0,South,4.6,-,N/A,,Clear,180,2013-09-13 03:15:00
11:35 PM,73.4,71.6,94,29.77,10.0,Calm,Calm,-,N/A,,Clear,0,2013-09-13 03:35:00
11:55 PM,73.4,71.6,94,29.78,7.0,Calm,Calm,-,N/A,,Clear,0,2013-09-13 03:55:00